sensor_id;sensor_type;location;lat;lon;timestamp;P1;durP1;ratioP1;P2;durP2;ratioP2
76552;SDS011;65395;53.168;18.156;2024-03-23T00:54:39;10.80;;;2.40;;
76552;SDS011;65395;53.168;18.156;2024-03-23T00:57:06;8.90;;;2.20;;
76552;SDS011;65395;53.168;18.156;2024-03-23T00:59:33;18.00;;;2.90;;
76552;SDS011;65395;53.168;18.156;2024-03-23T01:02:00;18.20;;;3.10;;
76552;SDS011;65395;53.168;18.156;2024-03-23T01:04:26;12.40;;;2.60;;
76552;SDS011;65395;53.168;18.156;2024-03-23T01:06:53;13.30;;;2.80;;
76552;SDS011;65395;53.168;18.156;2024-03-23T01:09:20;13.10;;;3.50;;
76552;SDS011;65395;53.168;18.156;2024-03-23T01:11:47;15.80;;;3.10;;
76552;SDS011;65395;53.168;18.156;2024-03-23T01:14:13;17.20;;;2.90;;
76552;SDS011;65395;53.168;18.156;2024-03-23T01:16:40;15.80;;;3.50;;
76552;SDS011;65395;53.168;18.156;2024-03-23T01:19:07;12.90;;;2.70;;
76552;SDS011;65395;53.168;18.156;2024-03-23T01:21:34;16.30;;;2.90;;
76552;SDS011;65395;53.168;18.156;2024-03-23T01:24:01;9.40;;;2.50;;
76552;SDS011;65395;53.168;18.156;2024-03-23T01:26:28;15.50;;;2.70;;
76552;SDS011;65395;53.168;18.156;2024-03-23T01:28:55;13.30;;;2.80;;
76552;SDS011;65395;53.168;18.156;2024-03-23T01:31:21;13.30;;;2.60;;
76552;SDS011;65395;53.168;18.156;2024-03-23T01:33:48;11.40;;;2.60;;
76552;SDS011;65395;53.168;18.156;2024-03-23T01:36:15;11.40;;;2.70;;
76552;SDS011;65395;53.168;18.156;2024-03-23T01:38:42;14.40;;;3.70;;
76552;SDS011;65395;53.168;18.156;2024-03-23T01:41:08;19.20;;;3.30;;
76552;SDS011;65395;53.168;18.156;2024-03-23T01:43:35;12.00;;;2.90;;
76552;SDS011;65395;53.168;18.156;2024-03-23T01:46:02;14.40;;;3.30;;
76552;SDS011;65395;53.168;18.156;2024-03-23T01:48:29;16.20;;;3.60;;
76552;SDS011;65395;53.168;18.156;2024-03-23T01:50:56;16.80;;;3.20;;
76552;SDS011;65395;53.168;18.156;2024-03-23T01:53:23;16.30;;;3.30;;
76552;SDS011;65395;53.168;18.156;2024-03-23T01:55:50;19.30;;;3.40;;
76552;SDS011;65395;53.168;18.156;2024-03-23T01:58:17;9.10;;;2.60;;
76552;SDS011;65395;53.168;18.156;2024-03-23T02:00:44;15.80;;;3.40;;
76552;SDS011;65395;53.168;18.156;2024-03-23T02:05:48;15.40;;;3.20;;
76552;SDS011;65395;53.168;18.156;2024-03-23T02:08:16;12.10;;;2.90;;
76552;SDS011;65395;53.168;18.156;2024-03-23T02:10:44;11.30;;;2.70;;
76552;SDS011;65395;53.168;18.156;2024-03-23T02:13:10;13.20;;;3.20;;
76552;SDS011;65395;53.168;18.156;2024-03-23T02:15:39;13.10;;;3.30;;
76552;SDS011;65395;53.168;18.156;2024-03-23T02:18:07;12.20;;;3.00;;
76552;SDS011;65395;53.168;18.156;2024-03-23T02:20:35;14.60;;;2.90;;
76552;SDS011;65395;53.168;18.156;2024-03-23T02:23:04;15.30;;;3.00;;
76552;SDS011;65395;53.168;18.156;2024-03-23T02:25:32;13.30;;;3.50;;
76552;SDS011;65395;53.168;18.156;2024-03-23T02:27:59;13.70;;;2.90;;
76552;SDS011;65395;53.168;18.156;2024-03-23T02:30:26;16.60;;;2.90;;
76552;SDS011;65395;53.168;18.156;2024-03-23T02:32:54;16.40;;;3.20;;
76552;SDS011;65395;53.168;18.156;2024-03-23T02:35:20;12.20;;;2.90;;
76552;SDS011;65395;53.168;18.156;2024-03-23T02:37:47;18.30;;;4.70;;
76552;SDS011;65395;53.168;18.156;2024-03-23T02:40:15;19.40;;;4.60;;
76552;SDS011;65395;53.168;18.156;2024-03-23T02:42:43;10.80;;;3.00;;
76552;SDS011;65395;53.168;18.156;2024-03-23T02:45:09;10.80;;;2.90;;
76552;SDS011;65395;53.168;18.156;2024-03-23T02:47:36;13.50;;;2.80;;
76552;SDS011;65395;53.168;18.156;2024-03-23T02:50:03;9.40;;;2.70;;
76552;SDS011;65395;53.168;18.156;2024-03-23T02:52:30;8.70;;;2.80;;
76552;SDS011;65395;53.168;18.156;2024-03-23T02:54:57;8.00;;;2.50;;
76552;SDS011;65395;53.168;18.156;2024-03-23T02:57:24;12.60;;;2.80;;
76552;SDS011;65395;53.168;18.156;2024-03-23T02:59:51;9.70;;;2.90;;
76552;SDS011;65395;53.168;18.156;2024-03-23T03:02:18;9.30;;;3.10;;
76552;SDS011;65395;53.168;18.156;2024-03-23T03:04:44;9.10;;;2.80;;
76552;SDS011;65395;53.168;18.156;2024-03-23T03:07:11;8.60;;;2.40;;
76552;SDS011;65395;53.168;18.156;2024-03-23T03:09:38;10.80;;;2.80;;
76552;SDS011;65395;53.168;18.156;2024-03-23T03:12:05;11.30;;;2.90;;
76552;SDS011;65395;53.168;18.156;2024-03-23T03:14:33;12.60;;;3.00;;
76552;SDS011;65395;53.168;18.156;2024-03-23T03:17:00;9.90;;;2.80;;
76552;SDS011;65395;53.168;18.156;2024-03-23T03:19:27;9.70;;;2.70;;
76552;SDS011;65395;53.168;18.156;2024-03-23T03:21:54;13.20;;;3.10;;
76552;SDS011;65395;53.168;18.156;2024-03-23T03:24:21;10.00;;;2.90;;
76552;SDS011;65395;53.168;18.156;2024-03-23T03:26:48;9.90;;;2.90;;
76552;SDS011;65395;53.168;18.156;2024-03-23T03:29:16;11.10;;;3.10;;
76552;SDS011;65395;53.168;18.156;2024-03-23T03:31:43;12.50;;;3.20;;
76552;SDS011;65395;53.168;18.156;2024-03-23T03:34:10;9.60;;;2.90;;
76552;SDS011;65395;53.168;18.156;2024-03-23T03:36:37;8.80;;;2.70;;
76552;SDS011;65395;53.168;18.156;2024-03-23T03:39:04;11.50;;;3.30;;
76552;SDS011;65395;53.168;18.156;2024-03-23T03:41:31;11.00;;;2.90;;
76552;SDS011;65395;53.168;18.156;2024-03-23T03:43:58;10.50;;;2.90;;
76552;SDS011;65395;53.168;18.156;2024-03-23T03:46:28;11.50;;;3.00;;
76552;SDS011;65395;53.168;18.156;2024-03-23T03:48:55;12.30;;;3.20;;
76552;SDS011;65395;53.168;18.156;2024-03-23T03:51:22;11.00;;;3.00;;
76552;SDS011;65395;53.168;18.156;2024-03-23T03:53:48;8.90;;;3.10;;
76552;SDS011;65395;53.168;18.156;2024-03-23T03:56:15;11.10;;;2.90;;
76552;SDS011;65395;53.168;18.156;2024-03-23T03:58:42;14.70;;;3.20;;
76552;SDS011;65395;53.168;18.156;2024-03-23T04:01:09;11.00;;;2.90;;
76552;SDS011;65395;53.168;18.156;2024-03-23T04:03:36;8.80;;;2.80;;
76552;SDS011;65395;53.168;18.156;2024-03-23T04:06:03;12.30;;;2.90;;
76552;SDS011;65395;53.168;18.156;2024-03-23T04:08:30;11.30;;;2.90;;
76552;SDS011;65395;53.168;18.156;2024-03-23T04:10:56;9.30;;;3.00;;
76552;SDS011;65395;53.168;18.156;2024-03-23T04:13:23;10.60;;;3.80;;
76552;SDS011;65395;53.168;18.156;2024-03-23T04:15:53;12.00;;;3.80;;
76552;SDS011;65395;53.168;18.156;2024-03-23T04:18:21;14.90;;;3.50;;
76552;SDS011;65395;53.168;18.156;2024-03-23T04:20:48;13.50;;;3.20;;
76552;SDS011;65395;53.168;18.156;2024-03-23T04:23:15;11.20;;;2.90;;
76552;SDS011;65395;53.168;18.156;2024-03-23T04:25:42;10.90;;;3.10;;
76552;SDS011;65395;53.168;18.156;2024-03-23T04:28:09;9.10;;;2.90;;
76552;SDS011;65395;53.168;18.156;2024-03-23T04:30:35;12.90;;;4.30;;
76552;SDS011;65395;53.168;18.156;2024-03-23T04:33:03;15.60;;;4.30;;
76552;SDS011;65395;53.168;18.156;2024-03-23T04:35:31;9.60;;;3.40;;
76552;SDS011;65395;53.168;18.156;2024-03-23T04:37:58;10.90;;;3.00;;
76552;SDS011;65395;53.168;18.156;2024-03-23T04:40:26;10.40;;;2.60;;
76552;SDS011;65395;53.168;18.156;2024-03-23T04:42:53;10.80;;;2.80;;
76552;SDS011;65395;53.168;18.156;2024-03-23T04:45:20;9.90;;;3.30;;
76552;SDS011;65395;53.168;18.156;2024-03-23T04:47:49;14.70;;;4.20;;
76552;SDS011;65395;53.168;18.156;2024-03-23T04:50:16;14.70;;;5.00;;
76552;SDS011;65395;53.168;18.156;2024-03-23T04:52:43;13.30;;;4.10;;
76552;SDS011;65395;53.168;18.156;2024-03-23T04:55:09;9.70;;;3.30;;
76552;SDS011;65395;53.168;18.156;2024-03-23T04:57:38;12.70;;;4.00;;
76552;SDS011;65395;53.168;18.156;2024-03-23T05:00:05;13.10;;;4.10;;
76552;SDS011;65395;53.168;18.156;2024-03-23T05:02:43;13.40;;;4.40;;
76552;SDS011;65395;53.168;18.156;2024-03-23T05:05:11;14.60;;;4.30;;
76552;SDS011;65395;53.168;18.156;2024-03-23T05:07:38;18.00;;;4.60;;
76552;SDS011;65395;53.168;18.156;2024-03-23T05:10:05;13.20;;;4.80;;
76552;SDS011;65395;53.168;18.156;2024-03-23T05:12:37;11.40;;;4.60;;
76552;SDS011;65395;53.168;18.156;2024-03-23T05:15:04;12.40;;;3.90;;
76552;SDS011;65395;53.168;18.156;2024-03-23T05:17:32;11.80;;;3.90;;
76552;SDS011;65395;53.168;18.156;2024-03-23T05:19:59;11.90;;;4.50;;
76552;SDS011;65395;53.168;18.156;2024-03-23T05:22:26;10.90;;;3.80;;
76552;SDS011;65395;53.168;18.156;2024-03-23T05:24:53;19.60;;;4.30;;
76552;SDS011;65395;53.168;18.156;2024-03-23T05:27:20;12.50;;;4.00;;
76552;SDS011;65395;53.168;18.156;2024-03-23T05:29:47;13.70;;;4.00;;
76552;SDS011;65395;53.168;18.156;2024-03-23T05:32:14;12.80;;;3.70;;
76552;SDS011;65395;53.168;18.156;2024-03-23T05:34:40;11.40;;;4.00;;
76552;SDS011;65395;53.168;18.156;2024-03-23T05:37:07;10.70;;;3.70;;
76552;SDS011;65395;53.168;18.156;2024-03-23T05:39:34;14.30;;;4.20;;
76552;SDS011;65395;53.168;18.156;2024-03-23T05:42:01;12.60;;;3.60;;
76552;SDS011;65395;53.168;18.156;2024-03-23T05:44:27;12.10;;;4.90;;
76552;SDS011;65395;53.168;18.156;2024-03-23T05:46:54;17.50;;;4.10;;
76552;SDS011;65395;53.168;18.156;2024-03-23T05:49:21;10.30;;;3.30;;
76552;SDS011;65395;53.168;18.156;2024-03-23T05:51:48;11.50;;;3.40;;
76552;SDS011;65395;53.168;18.156;2024-03-23T05:54:14;10.90;;;3.40;;
76552;SDS011;65395;53.168;18.156;2024-03-23T05:56:41;12.20;;;3.40;;
76552;SDS011;65395;53.168;18.156;2024-03-23T05:59:08;12.00;;;3.20;;
76552;SDS011;65395;53.168;18.156;2024-03-23T06:01:35;10.50;;;3.40;;
76552;SDS011;65395;53.168;18.156;2024-03-23T06:04:02;13.00;;;3.10;;
76552;SDS011;65395;53.168;18.156;2024-03-23T06:06:29;12.20;;;3.00;;
76552;SDS011;65395;53.168;18.156;2024-03-23T06:08:56;16.20;;;4.40;;
76552;SDS011;65395;53.168;18.156;2024-03-23T06:11:23;10.30;;;3.20;;
76552;SDS011;65395;53.168;18.156;2024-03-23T06:13:50;11.10;;;2.80;;
76552;SDS011;65395;53.168;18.156;2024-03-23T06:16:17;15.90;;;3.20;;
76552;SDS011;65395;53.168;18.156;2024-03-23T06:18:49;13.60;;;2.90;;
76552;SDS011;65395;53.168;18.156;2024-03-23T06:21:16;18.80;;;3.30;;
76552;SDS011;65395;53.168;18.156;2024-03-23T06:23:44;13.50;;;2.70;;
76552;SDS011;65395;53.168;18.156;2024-03-23T06:26:17;15.30;;;3.00;;
76552;SDS011;65395;53.168;18.156;2024-03-23T06:28:45;10.10;;;2.80;;
76552;SDS011;65395;53.168;18.156;2024-03-23T06:31:12;12.10;;;2.70;;
76552;SDS011;65395;53.168;18.156;2024-03-23T06:33:39;14.60;;;2.80;;
76552;SDS011;65395;53.168;18.156;2024-03-23T06:36:09;10.80;;;2.90;;
76552;SDS011;65395;53.168;18.156;2024-03-23T06:38:37;13.20;;;3.00;;
76552;SDS011;65395;53.168;18.156;2024-03-23T06:41:04;8.90;;;2.70;;
76552;SDS011;65395;53.168;18.156;2024-03-23T06:43:31;11.70;;;3.00;;
76552;SDS011;65395;53.168;18.156;2024-03-23T06:45:58;14.50;;;3.00;;
76552;SDS011;65395;53.168;18.156;2024-03-23T06:48:25;9.90;;;2.60;;
76552;SDS011;65395;53.168;18.156;2024-03-23T06:50:56;13.10;;;3.10;;
76552;SDS011;65395;53.168;18.156;2024-03-23T06:53:23;16.00;;;3.30;;
76552;SDS011;65395;53.168;18.156;2024-03-23T06:55:51;12.70;;;3.20;;
76552;SDS011;65395;53.168;18.156;2024-03-23T06:58:20;13.70;;;3.60;;
76552;SDS011;65395;53.168;18.156;2024-03-23T07:00:47;13.00;;;3.90;;
76552;SDS011;65395;53.168;18.156;2024-03-23T07:03:14;10.40;;;3.30;;
76552;SDS011;65395;53.168;18.156;2024-03-23T07:05:41;12.00;;;3.30;;
76552;SDS011;65395;53.168;18.156;2024-03-23T07:08:08;10.00;;;2.70;;
76552;SDS011;65395;53.168;18.156;2024-03-23T07:10:37;11.80;;;2.60;;
76552;SDS011;65395;53.168;18.156;2024-03-23T07:13:06;11.70;;;2.90;;
76552;SDS011;65395;53.168;18.156;2024-03-23T07:15:33;10.70;;;3.00;;
76552;SDS011;65395;53.168;18.156;2024-03-23T07:18:00;9.90;;;3.20;;
76552;SDS011;65395;53.168;18.156;2024-03-23T07:20:27;11.40;;;2.60;;
76552;SDS011;65395;53.168;18.156;2024-03-23T07:22:55;14.00;;;2.80;;
76552;SDS011;65395;53.168;18.156;2024-03-23T07:25:22;14.10;;;2.80;;
76552;SDS011;65395;53.168;18.156;2024-03-23T07:27:49;10.00;;;3.00;;
76552;SDS011;65395;53.168;18.156;2024-03-23T07:30:16;16.20;;;3.30;;
76552;SDS011;65395;53.168;18.156;2024-03-23T07:32:44;11.30;;;2.00;;
76552;SDS011;65395;53.168;18.156;2024-03-23T07:35:11;11.40;;;2.40;;
76552;SDS011;65395;53.168;18.156;2024-03-23T07:37:38;10.00;;;2.60;;
76552;SDS011;65395;53.168;18.156;2024-03-23T07:40:05;9.10;;;3.00;;
76552;SDS011;65395;53.168;18.156;2024-03-23T07:42:32;12.50;;;3.20;;
76552;SDS011;65395;53.168;18.156;2024-03-23T07:44:59;16.90;;;3.40;;
76552;SDS011;65395;53.168;18.156;2024-03-23T07:47:26;8.80;;;2.80;;
76552;SDS011;65395;53.168;18.156;2024-03-23T07:49:52;14.50;;;4.00;;
76552;SDS011;65395;53.168;18.156;2024-03-23T07:52:19;14.00;;;3.40;;
76552;SDS011;65395;53.168;18.156;2024-03-23T07:54:46;9.30;;;2.60;;
76552;SDS011;65395;53.168;18.156;2024-03-23T07:57:13;12.30;;;2.50;;
76552;SDS011;65395;53.168;18.156;2024-03-23T07:59:40;16.50;;;3.20;;
76552;SDS011;65395;53.168;18.156;2024-03-23T08:02:07;15.00;;;3.00;;
76552;SDS011;65395;53.168;18.156;2024-03-23T08:04:33;10.70;;;2.60;;
76552;SDS011;65395;53.168;18.156;2024-03-23T08:07:00;10.20;;;3.30;;
76552;SDS011;65395;53.168;18.156;2024-03-23T08:09:27;12.00;;;2.60;;
76552;SDS011;65395;53.168;18.156;2024-03-23T08:11:54;12.20;;;2.80;;
76552;SDS011;65395;53.168;18.156;2024-03-23T08:14:21;10.70;;;3.00;;
76552;SDS011;65395;53.168;18.156;2024-03-23T08:16:47;10.50;;;3.10;;
76552;SDS011;65395;53.168;18.156;2024-03-23T08:19:16;14.10;;;3.00;;
76552;SDS011;65395;53.168;18.156;2024-03-23T08:21:43;12.50;;;2.80;;
76552;SDS011;65395;53.168;18.156;2024-03-23T08:24:09;12.90;;;3.20;;
76552;SDS011;65395;53.168;18.156;2024-03-23T08:26:36;9.20;;;2.40;;
76552;SDS011;65395;53.168;18.156;2024-03-23T08:29:03;11.70;;;2.80;;
76552;SDS011;65395;53.168;18.156;2024-03-23T08:31:31;16.30;;;3.30;;
76552;SDS011;65395;53.168;18.156;2024-03-23T08:33:57;11.30;;;2.90;;
76552;SDS011;65395;53.168;18.156;2024-03-23T08:36:24;12.10;;;2.70;;
76552;SDS011;65395;53.168;18.156;2024-03-23T08:38:51;10.20;;;2.50;;
76552;SDS011;65395;53.168;18.156;2024-03-23T08:41:20;11.80;;;3.00;;
76552;SDS011;65395;53.168;18.156;2024-03-23T08:43:47;13.50;;;3.40;;
76552;SDS011;65395;53.168;18.156;2024-03-23T08:46:15;16.70;;;3.30;;
76552;SDS011;65395;53.168;18.156;2024-03-23T08:48:43;16.70;;;3.40;;
76552;SDS011;65395;53.168;18.156;2024-03-23T08:51:12;11.30;;;2.20;;
76552;SDS011;65395;53.168;18.156;2024-03-23T08:53:40;7.60;;;2.10;;
76552;SDS011;65395;53.168;18.156;2024-03-23T08:56:08;10.20;;;2.30;;
76552;SDS011;65395;53.168;18.156;2024-03-23T08:58:36;13.00;;;3.00;;
76552;SDS011;65395;53.168;18.156;2024-03-23T09:01:11;13.00;;;2.80;;
76552;SDS011;65395;53.168;18.156;2024-03-23T09:03:39;10.40;;;2.30;;
76552;SDS011;65395;53.168;18.156;2024-03-23T09:06:08;7.10;;;2.10;;
76552;SDS011;65395;53.168;18.156;2024-03-23T09:08:35;11.00;;;2.50;;
76552;SDS011;65395;53.168;18.156;2024-03-23T09:11:04;8.20;;;2.30;;
76552;SDS011;65395;53.168;18.156;2024-03-23T09:13:33;11.00;;;3.70;;
76552;SDS011;65395;53.168;18.156;2024-03-23T09:16:00;9.90;;;3.30;;
76552;SDS011;65395;53.168;18.156;2024-03-23T09:18:30;8.60;;;3.10;;
76552;SDS011;65395;53.168;18.156;2024-03-23T09:20:58;9.00;;;2.60;;
76552;SDS011;65395;53.168;18.156;2024-03-23T09:23:25;9.80;;;2.70;;
76552;SDS011;65395;53.168;18.156;2024-03-23T09:25:51;5.50;;;1.90;;
76552;SDS011;65395;53.168;18.156;2024-03-23T09:28:18;5.20;;;2.00;;
76552;SDS011;65395;53.168;18.156;2024-03-23T09:30:45;8.50;;;1.90;;
76552;SDS011;65395;53.168;18.156;2024-03-23T09:33:12;5.30;;;1.60;;
76552;SDS011;65395;53.168;18.156;2024-03-23T09:35:40;6.70;;;2.10;;
76552;SDS011;65395;53.168;18.156;2024-03-23T09:38:08;5.80;;;1.90;;
76552;SDS011;65395;53.168;18.156;2024-03-23T09:40:43;2.50;;;1.40;;
76552;SDS011;65395;53.168;18.156;2024-03-23T09:43:10;5.60;;;1.80;;
76552;SDS011;65395;53.168;18.156;2024-03-23T09:45:39;5.00;;;1.50;;
76552;SDS011;65395;53.168;18.156;2024-03-23T09:48:09;3.80;;;1.50;;
76552;SDS011;65395;53.168;18.156;2024-03-23T09:50:37;5.80;;;1.60;;
76552;SDS011;65395;53.168;18.156;2024-03-23T09:53:08;3.00;;;1.20;;
76552;SDS011;65395;53.168;18.156;2024-03-23T09:55:36;2.60;;;1.10;;
76552;SDS011;65395;53.168;18.156;2024-03-23T09:58:02;2.00;;;0.80;;
76552;SDS011;65395;53.168;18.156;2024-03-23T10:00:31;5.50;;;1.50;;
76552;SDS011;65395;53.168;18.156;2024-03-23T10:03:00;3.70;;;1.00;;
76552;SDS011;65395;53.168;18.156;2024-03-23T10:05:29;4.30;;;1.10;;
76552;SDS011;65395;53.168;18.156;2024-03-23T10:07:57;3.50;;;1.50;;
76552;SDS011;65395;53.168;18.156;2024-03-23T10:10:24;4.60;;;1.40;;
76552;SDS011;65395;53.168;18.156;2024-03-23T10:12:52;4.20;;;1.50;;
76552;SDS011;65395;53.168;18.156;2024-03-23T10:15:21;4.40;;;1.70;;
76552;SDS011;65395;53.168;18.156;2024-03-23T10:17:50;5.70;;;2.30;;
76552;SDS011;65395;53.168;18.156;2024-03-23T10:20:24;3.90;;;1.50;;
76552;SDS011;65395;53.168;18.156;2024-03-23T10:22:51;4.30;;;1.10;;
76552;SDS011;65395;53.168;18.156;2024-03-23T10:25:22;5.80;;;1.20;;
76552;SDS011;65395;53.168;18.156;2024-03-23T10:30:26;3.70;;;0.80;;
76552;SDS011;65395;53.168;18.156;2024-03-23T10:33:06;3.70;;;1.00;;
76552;SDS011;65395;53.168;18.156;2024-03-23T10:35:34;5.70;;;0.80;;
76552;SDS011;65395;53.168;18.156;2024-03-23T10:38:02;6.50;;;1.10;;
76552;SDS011;65395;53.168;18.156;2024-03-23T10:40:33;4.60;;;1.80;;
76552;SDS011;65395;53.168;18.156;2024-03-23T10:43:00;4.60;;;1.00;;
76552;SDS011;65395;53.168;18.156;2024-03-23T10:45:30;6.30;;;1.10;;
76552;SDS011;65395;53.168;18.156;2024-03-23T10:47:57;7.00;;;1.20;;
76552;SDS011;65395;53.168;18.156;2024-03-23T10:50:24;5.90;;;1.00;;
76552;SDS011;65395;53.168;18.156;2024-03-23T10:52:52;5.80;;;1.30;;
76552;SDS011;65395;53.168;18.156;2024-03-23T10:55:21;4.80;;;1.10;;
76552;SDS011;65395;53.168;18.156;2024-03-23T10:57:52;4.00;;;1.10;;
76552;SDS011;65395;53.168;18.156;2024-03-23T11:00:22;5.10;;;1.10;;
76552;SDS011;65395;53.168;18.156;2024-03-23T11:02:49;7.10;;;1.40;;
76552;SDS011;65395;53.168;18.156;2024-03-23T11:07:54;6.80;;;1.30;;
76552;SDS011;65395;53.168;18.156;2024-03-23T11:10:29;3.10;;;1.00;;
76552;SDS011;65395;53.168;18.156;2024-03-23T11:12:57;4.50;;;1.30;;
76552;SDS011;65395;53.168;18.156;2024-03-23T11:15:24;6.30;;;1.30;;
76552;SDS011;65395;53.168;18.156;2024-03-23T11:20:31;5.30;;;1.40;;
76552;SDS011;65395;53.168;18.156;2024-03-23T11:22:59;5.00;;;1.40;;
76552;SDS011;65395;53.168;18.156;2024-03-23T11:25:26;7.80;;;1.60;;
76552;SDS011;65395;53.168;18.156;2024-03-23T11:27:55;6.20;;;2.10;;
76552;SDS011;65395;53.168;18.156;2024-03-23T11:30:25;7.30;;;1.80;;
76552;SDS011;65395;53.168;18.156;2024-03-23T11:32:57;7.10;;;1.70;;
76552;SDS011;65395;53.168;18.156;2024-03-23T11:35:29;7.10;;;1.20;;
76552;SDS011;65395;53.168;18.156;2024-03-23T11:38:03;7.20;;;1.40;;
76552;SDS011;65395;53.168;18.156;2024-03-23T11:40:32;8.30;;;1.80;;
76552;SDS011;65395;53.168;18.156;2024-03-23T11:43:00;6.00;;;1.50;;
76552;SDS011;65395;53.168;18.156;2024-03-23T11:45:28;4.30;;;1.40;;
76552;SDS011;65395;53.168;18.156;2024-03-23T11:48:01;7.40;;;1.80;;
76552;SDS011;65395;53.168;18.156;2024-03-23T11:50:32;5.20;;;1.60;;
76552;SDS011;65395;53.168;18.156;2024-03-23T11:55:44;5.20;;;1.60;;
76552;SDS011;65395;53.168;18.156;2024-03-23T11:58:13;5.80;;;2.30;;
76552;SDS011;65395;53.168;18.156;2024-03-23T12:00:41;5.80;;;1.60;;
76552;SDS011;65395;53.168;18.156;2024-03-23T12:03:08;5.30;;;1.90;;
76552;SDS011;65395;53.168;18.156;2024-03-23T12:05:36;6.00;;;1.70;;
76552;SDS011;65395;53.168;18.156;2024-03-23T12:10:43;8.50;;;1.50;;
76552;SDS011;65395;53.168;18.156;2024-03-23T12:13:11;5.80;;;1.90;;
76552;SDS011;65395;53.168;18.156;2024-03-23T12:15:40;4.10;;;1.30;;
76552;SDS011;65395;53.168;18.156;2024-03-23T12:18:08;4.50;;;1.80;;
76552;SDS011;65395;53.168;18.156;2024-03-23T12:20:37;5.90;;;1.60;;
76552;SDS011;65395;53.168;18.156;2024-03-23T12:23:09;4.90;;;1.50;;
76552;SDS011;65395;53.168;18.156;2024-03-23T12:25:38;5.60;;;1.50;;
76552;SDS011;65395;53.168;18.156;2024-03-23T12:28:06;4.20;;;1.70;;
76552;SDS011;65395;53.168;18.156;2024-03-23T12:30:34;6.10;;;1.90;;
76552;SDS011;65395;53.168;18.156;2024-03-23T12:33:02;5.60;;;1.90;;
76552;SDS011;65395;53.168;18.156;2024-03-23T12:35:29;6.80;;;1.90;;
76552;SDS011;65395;53.168;18.156;2024-03-23T12:37:56;6.00;;;1.90;;
76552;SDS011;65395;53.168;18.156;2024-03-23T12:40:23;6.40;;;2.20;;
76552;SDS011;65395;53.168;18.156;2024-03-23T12:42:50;6.20;;;2.20;;
76552;SDS011;65395;53.168;18.156;2024-03-23T12:45:17;3.70;;;2.00;;
76552;SDS011;65395;53.168;18.156;2024-03-23T12:47:43;4.80;;;2.40;;
76552;SDS011;65395;53.168;18.156;2024-03-23T12:50:10;6.10;;;2.80;;
76552;SDS011;65395;53.168;18.156;2024-03-23T12:52:37;5.20;;;2.50;;
76552;SDS011;65395;53.168;18.156;2024-03-23T12:55:04;7.50;;;3.00;;
76552;SDS011;65395;53.168;18.156;2024-03-23T12:57:32;5.60;;;3.00;;
76552;SDS011;65395;53.168;18.156;2024-03-23T12:59:59;8.40;;;3.00;;
76552;SDS011;65395;53.168;18.156;2024-03-23T13:02:27;7.90;;;3.30;;
76552;SDS011;65395;53.168;18.156;2024-03-23T13:04:54;7.30;;;3.80;;
76552;SDS011;65395;53.168;18.156;2024-03-23T13:07:22;6.30;;;3.30;;
76552;SDS011;65395;53.168;18.156;2024-03-23T13:09:50;8.50;;;3.50;;
76552;SDS011;65395;53.168;18.156;2024-03-23T13:12:19;4.80;;;2.40;;
76552;SDS011;65395;53.168;18.156;2024-03-23T13:14:46;6.10;;;2.10;;
76552;SDS011;65395;53.168;18.156;2024-03-23T13:17:13;6.80;;;2.90;;
76552;SDS011;65395;53.168;18.156;2024-03-23T13:19:40;9.30;;;3.10;;
76552;SDS011;65395;53.168;18.156;2024-03-23T13:22:07;4.50;;;2.10;;
76552;SDS011;65395;53.168;18.156;2024-03-23T13:24:37;7.10;;;2.50;;
76552;SDS011;65395;53.168;18.156;2024-03-23T13:27:04;5.80;;;1.60;;
76552;SDS011;65395;53.168;18.156;2024-03-23T13:29:34;5.80;;;2.40;;
76552;SDS011;65395;53.168;18.156;2024-03-23T13:32:01;7.30;;;3.20;;
76552;SDS011;65395;53.168;18.156;2024-03-23T13:34:28;6.10;;;1.80;;
76552;SDS011;65395;53.168;18.156;2024-03-23T13:36:56;4.10;;;2.00;;
76552;SDS011;65395;53.168;18.156;2024-03-23T13:39:24;5.10;;;2.30;;
76552;SDS011;65395;53.168;18.156;2024-03-23T13:41:53;9.80;;;3.70;;
76552;SDS011;65395;53.168;18.156;2024-03-23T13:44:23;6.20;;;1.80;;
76552;SDS011;65395;53.168;18.156;2024-03-23T13:46:50;4.40;;;1.50;;
76552;SDS011;65395;53.168;18.156;2024-03-23T13:49:25;3.00;;;1.40;;
76552;SDS011;65395;53.168;18.156;2024-03-23T13:51:54;7.30;;;2.80;;
76552;SDS011;65395;53.168;18.156;2024-03-23T13:54:24;18.40;;;3.60;;
76552;SDS011;65395;53.168;18.156;2024-03-23T13:56:52;7.80;;;2.70;;
76552;SDS011;65395;53.168;18.156;2024-03-23T13:59:20;7.00;;;2.60;;
76552;SDS011;65395;53.168;18.156;2024-03-23T14:01:49;7.60;;;2.30;;
76552;SDS011;65395;53.168;18.156;2024-03-23T14:04:18;7.00;;;2.70;;
76552;SDS011;65395;53.168;18.156;2024-03-23T14:06:46;9.30;;;2.60;;
76552;SDS011;65395;53.168;18.156;2024-03-23T14:09:13;8.60;;;2.80;;
76552;SDS011;65395;53.168;18.156;2024-03-23T14:11:41;3.70;;;1.60;;
76552;SDS011;65395;53.168;18.156;2024-03-23T14:14:09;6.70;;;2.50;;
76552;SDS011;65395;53.168;18.156;2024-03-23T14:16:36;6.70;;;2.80;;
76552;SDS011;65395;53.168;18.156;2024-03-23T14:19:03;6.50;;;2.30;;
76552;SDS011;65395;53.168;18.156;2024-03-23T14:21:32;7.40;;;3.60;;
76552;SDS011;65395;53.168;18.156;2024-03-23T14:23:58;5.90;;;2.10;;
76552;SDS011;65395;53.168;18.156;2024-03-23T14:26:27;11.50;;;4.10;;
76552;SDS011;65395;53.168;18.156;2024-03-23T14:28:54;4.90;;;2.10;;
76552;SDS011;65395;53.168;18.156;2024-03-23T14:31:20;6.50;;;2.20;;
76552;SDS011;65395;53.168;18.156;2024-03-23T14:33:47;8.00;;;3.60;;
76552;SDS011;65395;53.168;18.156;2024-03-23T14:36:15;7.90;;;3.70;;
76552;SDS011;65395;53.168;18.156;2024-03-23T14:38:47;4.40;;;2.30;;
76552;SDS011;65395;53.168;18.156;2024-03-23T14:41:15;8.60;;;3.60;;
76552;SDS011;65395;53.168;18.156;2024-03-23T14:43:42;4.90;;;1.80;;
76552;SDS011;65395;53.168;18.156;2024-03-23T14:46:11;6.70;;;2.40;;
76552;SDS011;65395;53.168;18.156;2024-03-23T14:48:41;6.20;;;2.50;;
76552;SDS011;65395;53.168;18.156;2024-03-23T14:51:09;5.50;;;2.50;;
76552;SDS011;65395;53.168;18.156;2024-03-23T14:53:40;4.50;;;2.10;;
76552;SDS011;65395;53.168;18.156;2024-03-23T14:56:11;5.70;;;1.70;;
76552;SDS011;65395;53.168;18.156;2024-03-23T14:58:41;4.70;;;1.80;;
76552;SDS011;65395;53.168;18.156;2024-03-23T15:01:08;3.00;;;1.30;;
76552;SDS011;65395;53.168;18.156;2024-03-23T15:03:36;3.90;;;1.80;;
76552;SDS011;65395;53.168;18.156;2024-03-23T15:06:05;3.90;;;1.60;;
76552;SDS011;65395;53.168;18.156;2024-03-23T15:08:32;5.70;;;3.50;;
76552;SDS011;65395;53.168;18.156;2024-03-23T15:10:59;7.00;;;2.70;;
76552;SDS011;65395;53.168;18.156;2024-03-23T15:13:33;4.60;;;1.50;;
76552;SDS011;65395;53.168;18.156;2024-03-23T15:16:00;5.10;;;1.10;;
76552;SDS011;65395;53.168;18.156;2024-03-23T15:18:30;2.80;;;1.60;;
76552;SDS011;65395;53.168;18.156;2024-03-23T15:20:57;7.00;;;2.20;;
76552;SDS011;65395;53.168;18.156;2024-03-23T15:23:29;3.10;;;1.00;;
76552;SDS011;65395;53.168;18.156;2024-03-23T15:25:56;34.20;;;12.80;;
76552;SDS011;65395;53.168;18.156;2024-03-23T15:28:25;5.00;;;1.80;;
76552;SDS011;65395;53.168;18.156;2024-03-23T15:31:04;45.50;;;14.40;;
76552;SDS011;65395;53.168;18.156;2024-03-23T15:33:31;34.00;;;13.50;;
76552;SDS011;65395;53.168;18.156;2024-03-23T15:35:59;34.20;;;18.20;;
76552;SDS011;65395;53.168;18.156;2024-03-23T15:38:26;12.90;;;7.50;;
76552;SDS011;65395;53.168;18.156;2024-03-23T15:40:53;33.50;;;11.80;;